Terminal Aerodrome Forecast
Issued by NWS St Louis, MO

Home | Current Version | Previous Version | Graphics & Text | Print | Product List | Glossary On
Versions: 1 2 3 4 5 6 7 8 9 10 11 12 13 14 15 16 17 18 19 20
788
FTUS43 KLSX 210920 AAB
TAFCOU
TAF AMD
KCOU 210920Z 2109/2206 VRB04KT 4SM -SHRA BR OVC040
      TEMPO 2109/2111 1SM -SHRA BR
     FM211100 VRB04KT 3SM BR BKN025
     FM211600 01005KT P6SM BKN035
     FM220000 VRB04KT P6SM SKC=

USA.gov is the U.S. government's official web portal to all federal, state and local government web resources and services.